This is the latest recevied weather packets stored in our database for station/object KG4LKY-5. If no packets are shown the sender has not sent any weather packets the latest 10 day(s).
| Time | Temp. | Humidity | Pressure | Rain* | Wind** | Luminosity | Snow |
|---|---|---|---|---|---|---|---|
| 1777690285 | 8.89° C | 68% | 1017.3 hPa | 0.25 mm | - | - | - |
| 1777689985 | 8.89° C | 70% | 1017.3 hPa | 0.25 mm | - | - | - |
| 1777689084 | 10° C | 66% | 1017.3 hPa | 0.25 mm | - | - | - |
| 1777688483 | 10° C | 65% | 1017.2 hPa | 0.25 mm | - | - | - |
| 1777688183 | 10° C | 66% | 1017 hPa | 0.25 mm | - | - | - |
| 1777687883 | 10.56° C | 62% | 1017 hPa | 0.25 mm | - | - | - |
| 1777686982 | 10° C | 65% | 1016.7 hPa | 0.25 mm | - | - | - |
| 1777686682 | 9.44° C | 64% | 1016.6 hPa | 0.25 mm | - | - | - |
| 1777686382 | 10° C | 65% | 1016.5 hPa | 0.25 mm | - | - | - |
| 1777685781 | 10° C | 63% | 1016.3 hPa | 0.25 mm | - | - | - |
| 1777685482 | 10° C | 65% | 1016.1 hPa | 0.25 mm | - | - | - |
| 1777685180 | 10° C | 64% | 1016 hPa | 0.25 mm | - | - | - |
| 1777684579 | 10° C | 66% | 1015.9 hPa | 0.25 mm | - | - | - |
| 1777684279 | 10.56° C | 67% | 1015.7 hPa | 0.25 mm | - | - | - |
| 1777683979 | 10.56° C | 61% | 1015.4 hPa | 0.25 mm | - | - | - |
| 1777683679 | 10.56° C | 61% | 1015.2 hPa | 0.25 mm | - | - | - |
| 1777683378 | 11.11° C | 59% | 1015.1 hPa | 0.25 mm | - | - | - |
| 1777683078 | 11.11° C | 61% | 1014.9 hPa | 0.25 mm | - | - | - |
| 1777682778 | 11.67° C | 59% | 1014.9 hPa | 0.25 mm | - | - | - |
| 1777682477 | 11.11° C | 58% | 1014.8 hPa | 0.25 mm | - | - | - |
| 1777682178 | 11.67° C | 55% | 1014.8 hPa | 0.25 mm | - | - | - |
| 1777681877 | 12.22° C | 55% | 1014.8 hPa | 0.25 mm | - | - | - |
| 1777681577 | 12.22° C | 51% | 1014.7 hPa | 0.25 mm | - | - | - |
| 1777681276 | 12.22° C | 53% | 1014.6 hPa | 0.25 mm | - | - | - |
| 1777680976 | 13.33° C | 53% | 1014.6 hPa | 0.25 mm | - | - | - |
* Rain since midnight (hover to see other rain measurements)
** Current wind speed in m/s (hover to see current wind gust speed)